KMWL/MWL METAR and TAF weather

Enter ICAO airport designator
Station Type Date Time Source
KMWL METAR 2021/05/12 05:53 UTC NOAA

KMWL 120553Z AUTO 35009KT 10SM OVC012 13/12 A3013 RMK AO2 SLP199 60001 T01280117 10150 20128 401610128 56001


Station Type Date Time Source
KMWL Decoded METAR 2021/05/12 05:53 UTC NOAA

MINERAL WELLS AIRPORT, TX, United States (KMWL) 32-47N 098-04W 284M
May 12, 2021 - 01:53 AM EDT / 2021.05.12 0553 UTC
Wind: from the N (350 degrees) at 10 MPH (9 KT):0
Visibility: 10 mile(s):0
Sky conditions: overcast
Temperature: 55.0 F (12.8 C)
Dew Point: 53.1 F (11.7 C)
Relative Humidity: 93%
Pressure (altimeter): 30.13 in. Hg (1020 hPa)
Pressure tendency: 0.00 inches (0.1 hPa) lower than three hours ago
ob: KMWL 120553Z AUTO 35009KT 10SM OVC012 13/12 A3013 RMK AO2 SLP199 60001 T01280117 10150 20128 401610128 56001
cycle: 6

Station Type Date Time Source
KMWL TAF UTC NOAA

Error!

Example: see airport list